createdAt,value
2019-02-07T00:00:22.338Z,24.37
2019-02-07T00:02:54.861Z,16.20
2019-02-07T00:05:28.259Z,21.50
2019-02-07T00:08:07.805Z,31.13
2019-02-07T00:10:34.874Z,26.03
2019-02-07T00:13:04.469Z,26.80
2019-02-07T00:15:36.636Z,27.90
2019-02-07T00:18:06.228Z,26.40
2019-02-07T00:20:36.332Z,24.00
2019-02-07T00:23:07.110Z,28.80
2019-02-07T00:25:38.978Z,25.97
2019-02-07T00:28:08.397Z,24.57
2019-02-07T00:30:38.114Z,23.97
2019-02-07T00:33:11.470Z,27.57
2019-02-07T00:35:40.858Z,25.27
2019-02-07T00:38:12.095Z,24.53
2019-02-07T00:40:41.469Z,24.00
2019-02-07T00:43:15.670Z,24.87
2019-02-07T00:45:50.789Z,24.63
2019-02-07T00:48:26.274Z,24.20
2019-02-07T00:50:55.685Z,22.90
2019-02-07T00:53:24.979Z,24.33
2019-02-07T00:55:56.041Z,23.37
2019-02-07T00:58:25.351Z,24.73
2019-02-07T01:00:56.989Z,24.60
2019-02-07T01:03:32.782Z,25.97
2019-02-07T01:06:05.147Z,24.83
2019-02-07T01:08:34.557Z,22.87
2019-02-07T01:11:03.964Z,27.10
2019-02-07T01:13:33.395Z,25.00
2019-02-07T01:16:05.980Z,24.87
2019-02-07T01:18:35.372Z,23.90
2019-02-07T01:21:07.051Z,24.90
2019-02-07T01:23:37.446Z,22.87
2019-02-07T01:26:06.869Z,25.40
2019-02-07T01:28:36.329Z,24.17
2019-02-07T01:31:12.661Z,22.93
2019-02-07T01:33:41.608Z,24.83
2019-02-07T01:36:12.274Z,24.70
2019-02-07T01:38:44.887Z,23.90
2019-02-07T01:41:18.318Z,23.47
2019-02-07T01:43:48.387Z,23.57
2019-02-07T01:46:17.845Z,21.47
2019-02-07T01:48:49.289Z,23.97
2019-02-07T01:51:18.630Z,22.40
2019-02-07T01:53:51.273Z,23.60
2019-02-07T01:56:21.118Z,21.67
2019-02-07T01:58:53.066Z,21.90
2019-02-07T02:01:29.842Z,21.90
2019-02-07T02:03:59.458Z,23.37
2019-02-07T02:06:30.022Z,22.90
2019-02-07T02:08:59.326Z,23.23
2019-02-07T02:11:30.344Z,25.10
2019-02-07T02:14:02.427Z,23.50
2019-02-07T02:16:31.882Z,22.23
2019-02-07T02:19:02.477Z,24.00
2019-02-07T02:21:33.266Z,22.70
2019-02-07T02:24:02.882Z,22.03
2019-02-07T02:26:35.210Z,23.27
2019-02-07T02:29:06.114Z,20.77
2019-02-07T02:31:35.503Z,17.60
2019-02-07T02:34:07.658Z,21.83
2019-02-07T02:36:41.023Z,19.40
2019-02-07T02:39:10.606Z,18.17
2019-02-07T02:47:51.215Z,21.30
2019-02-07T02:50:21.511Z,23.70
2019-02-07T02:52:50.946Z,23.10
2019-02-07T02:55:33.439Z,24.80
2019-02-07T02:58:05.908Z,24.00
2019-02-07T03:00:53.125Z,25.20
2019-02-07T03:03:33.789Z,18.30
2019-02-07T03:06:42.103Z,21.50
2019-02-07T03:09:29.508Z,18.33
2019-02-07T03:12:16.503Z,21.37
2019-02-07T03:15:13.940Z,21.90
2019-02-07T03:18:05.381Z,19.33
2019-02-07T03:20:53.730Z,19.43
2019-02-07T03:23:51.291Z,19.03
2019-02-07T03:26:34.299Z,17.90
2019-02-07T03:29:31.001Z,19.90
2019-02-07T03:32:22.568Z,19.47
2019-02-07T03:35:16.890Z,22.00
2019-02-07T03:38:09.621Z,19.57
2019-02-07T03:41:06.813Z,21.00
2019-02-07T03:44:07.401Z,21.00
2019-02-07T03:46:54.644Z,19.50
2019-02-07T03:49:52.604Z,18.97
2019-02-07T03:52:32.688Z,18.63
2019-02-07T03:55:19.770Z,17.70
2019-02-07T03:58:09.984Z,19.13
2019-02-07T04:00:57.320Z,16.83
2019-02-07T04:03:47.383Z,16.50
2019-02-07T04:06:42.905Z,16.90
2019-02-07T04:09:29.848Z,16.27
2019-02-07T04:12:27.045Z,15.90
2019-02-07T04:15:19.603Z,15.53
2019-02-07T04:18:27.326Z,18.20
2019-02-07T04:21:11.629Z,16.70
2019-02-07T04:24:09.218Z,16.90
2019-02-07T04:27:03.572Z,17.23
2019-02-07T04:29:58.625Z,18.37
2019-02-07T04:32:52.947Z,17.30
2019-02-07T04:35:39.748Z,19.53
2019-02-07T04:38:46.594Z,20.70
2019-02-07T04:41:35.014Z,18.77
2019-02-07T04:44:24.291Z,18.97
2019-02-07T04:47:20.888Z,21.07
2019-02-07T04:50:18.123Z,17.83
2019-02-07T04:53:09.299Z,18.90
2019-02-07T04:55:56.429Z,19.50
2019-02-07T04:58:43.023Z,17.00
2019-02-07T05:01:49.318Z,9.70
2019-02-07T05:04:40.664Z,12.47
2019-02-07T05:07:25.264Z,9.03
2019-02-07T05:10:13.634Z,11.30
2019-02-07T05:13:11.156Z,16.20
2019-02-07T05:16:01.383Z,13.40
2019-02-07T05:19:00.302Z,17.47
2019-02-07T05:21:48.744Z,15.30
2019-02-07T05:24:40.198Z,17.27
2019-02-07T05:27:29.969Z,18.40
2019-02-07T05:30:14.715Z,9.87
2019-02-07T05:33:01.771Z,20.70
2019-02-07T05:35:49.825Z,20.60
2019-02-07T05:38:53.190Z,21.00
2019-02-07T05:41:46.186Z,20.60
2019-02-07T05:44:34.376Z,22.00
2019-02-07T05:47:35.057Z,21.20
2019-02-07T05:50:36.304Z,21.43
2019-02-07T05:53:23.216Z,16.63
2019-02-07T05:56:20.773Z,20.97
2019-02-07T05:59:06.343Z,21.20
2019-02-07T06:02:01.560Z,14.00
2019-02-07T06:04:48.666Z,17.00
2019-02-07T06:07:39.784Z,16.37
2019-02-07T06:10:28.029Z,16.00
2019-02-07T08:53:06.182Z,13.87
2019-02-07T08:56:03.890Z,16.40
2019-02-07T08:58:53.455Z,18.53
2019-02-07T09:01:40.821Z,17.13
2019-02-07T09:04:28.142Z,15.37
2019-02-07T09:07:11.559Z,16.70
2019-02-07T09:09:52.914Z,16.33
2019-02-07T09:12:38.209Z,18.90
2019-02-07T09:15:22.226Z,18.50
2019-02-07T09:18:13.515Z,17.10
2019-02-07T09:21:02.034Z,17.90
2019-02-07T09:23:52.906Z,18.67
2019-02-07T09:26:35.555Z,18.53
2019-02-07T09:29:25.714Z,21.30
2019-02-07T09:32:08.822Z,18.93
2019-02-07T09:35:00.674Z,20.70
2019-02-07T09:38:07.984Z,19.57
2019-02-07T09:41:01.552Z,19.17
2019-02-07T09:43:50.682Z,17.83
2019-02-07T09:46:48.705Z,18.70
2019-02-07T09:49:36.309Z,20.10
2019-02-07T09:52:31.422Z,19.83
2019-02-07T09:55:28.580Z,18.70
2019-02-07T09:58:15.560Z,18.93
2019-02-07T10:00:55.884Z,20.30
2019-02-07T10:03:47.230Z,18.60
2019-02-07T10:06:38.432Z,19.33
2019-02-07T10:09:18.650Z,20.57
2019-02-07T10:12:05.858Z,16.20
2019-02-07T10:14:53.014Z,16.50
2019-02-07T10:17:50.404Z,18.67
2019-02-07T10:20:39.278Z,18.83
2019-02-07T10:23:17.109Z,42.40
2019-02-07T10:26:05.621Z,25.30
2019-02-07T10:28:52.701Z,22.17
2019-02-07T10:31:50.305Z,21.77
2019-02-07T10:34:37.640Z,21.03
2019-02-07T10:37:24.770Z,20.97
2019-02-07T10:40:13.281Z,19.97
2019-02-07T10:43:00.393Z,20.87
2019-02-07T10:45:47.492Z,20.97
2019-02-07T10:48:51.149Z,22.57
2019-02-07T10:51:42.659Z,21.57
2019-02-07T10:54:30.020Z,21.83
2019-02-07T10:57:17.335Z,22.40
2019-02-07T11:00:11.642Z,21.00
2019-02-07T11:02:59.733Z,23.77
2019-02-07T11:05:46.856Z,21.80
2019-02-07T11:08:35.275Z,24.40
2019-02-07T11:11:22.798Z,21.30
2019-02-07T11:14:10.232Z,22.10
2019-02-07T11:17:03.852Z,22.53
2019-02-07T11:20:10.049Z,21.70
2019-02-07T11:23:04.318Z,22.90
2019-02-07T11:25:51.589Z,26.07
2019-02-07T11:28:43.095Z,23.40
2019-02-07T11:31:29.493Z,24.90
2019-02-07T11:34:27.166Z,24.53
2019-02-07T11:37:18.698Z,24.03
2019-02-07T11:40:13.134Z,24.40
2019-02-07T11:42:57.998Z,25.07
2019-02-07T11:45:37.778Z,23.40
2019-02-07T11:48:32.198Z,25.17
2019-02-07T11:51:33.368Z,22.67
2019-02-07T11:54:12.636Z,24.07
2019-02-07T11:57:07.206Z,23.10
2019-02-07T11:59:55.721Z,24.53
2019-02-07T12:02:47.294Z,25.50
2019-02-07T12:05:34.522Z,24.37
2019-02-07T12:08:22.978Z,25.67
2019-02-07T12:11:09.845Z,25.13
2019-02-07T12:14:16.707Z,23.27
2019-02-07T12:17:22.889Z,25.60
2019-02-07T12:20:20.931Z,23.83
2019-02-07T12:23:12.599Z,23.13
2019-02-07T12:26:11.048Z,24.90
2019-02-07T12:28:58.139Z,21.80
2019-02-07T12:31:55.920Z,24.27
2019-02-07T12:34:43.644Z,23.77
2019-02-07T12:37:34.488Z,25.47
2019-02-07T12:40:24.058Z,25.90
2019-02-07T12:43:10.993Z,26.87
2019-02-07T12:45:54.437Z,26.30
2019-02-07T12:48:42.973Z,25.90
2019-02-07T12:51:46.519Z,26.20
2019-02-07T12:54:33.701Z,24.53
2019-02-07T12:57:19.517Z,28.23
2019-02-07T13:00:04.525Z,26.80
2019-02-07T13:02:52.095Z,26.20
2019-02-07T13:05:42.384Z,26.80
2019-02-07T13:08:29.429Z,26.37
2019-02-07T13:11:20.985Z,26.43
2019-02-07T13:14:08.154Z,27.57
2019-02-07T13:16:55.291Z,26.40
2019-02-07T13:19:46.611Z,26.90
2019-02-07T13:22:43.247Z,26.33
2019-02-07T13:25:23.684Z,28.67
2019-02-07T13:28:18.783Z,28.93
2019-02-07T13:31:07.960Z,29.13
2019-02-07T13:33:51.562Z,28.00
2019-02-07T13:36:39.439Z,26.80
2019-02-07T13:39:27.291Z,28.73
2019-02-07T13:42:15.351Z,26.60
2019-02-07T13:44:56.397Z,28.47
2019-02-07T13:47:49.651Z,26.73
2019-02-07T13:50:47.573Z,28.33
2019-02-07T13:53:43.721Z,27.30
2019-02-07T13:56:41.804Z,28.90
2019-02-07T13:59:23.666Z,27.60
2019-02-07T14:02:21.674Z,28.37
2019-02-07T14:05:11.058Z,28.10
2019-02-07T14:08:04.799Z,27.50
2019-02-07T14:11:05.766Z,26.50
2019-02-07T14:13:54.911Z,26.80
2019-02-07T14:16:47.756Z,29.10
2019-02-07T14:19:36.791Z,27.07
2019-02-07T14:22:24.536Z,29.40
2019-02-07T14:25:12.084Z,28.10
2019-02-07T14:28:08.284Z,28.00
2019-02-07T14:31:09.198Z,27.37
2019-02-07T14:34:01.385Z,29.10
2019-02-07T14:36:41.584Z,28.07
2019-02-07T14:39:29.146Z,29.90
2019-02-07T14:42:16.018Z,31.50
2019-02-07T14:44:56.914Z,29.73
2019-02-07T14:47:26.976Z,28.07
2019-02-07T14:49:57.059Z,28.73
2019-02-07T14:52:27.182Z,30.17
2019-02-07T14:54:57.626Z,34.43
2019-02-07T14:57:27.829Z,30.07
2019-02-07T14:59:58.227Z,30.77
2019-02-07T15:02:28.359Z,29.93
2019-02-07T15:04:58.480Z,29.93
2019-02-07T15:07:28.604Z,32.07
2019-02-07T15:09:58.723Z,30.03
2019-02-07T15:12:29.941Z,32.00
2019-02-07T15:15:02.090Z,33.20
2019-02-07T15:17:32.215Z,30.23
2019-02-07T15:20:02.233Z,30.23
2019-02-07T15:22:32.243Z,32.33
2019-02-07T15:25:02.317Z,30.77
2019-02-07T15:27:32.535Z,31.20
2019-02-07T15:30:02.635Z,29.60
2019-02-07T15:32:32.745Z,31.53
2019-02-07T15:35:07.385Z,31.80
2019-02-07T15:37:37.579Z,32.73
2019-02-07T15:40:13.165Z,30.10
2019-02-07T15:42:43.305Z,29.70
2019-02-07T15:45:14.820Z,29.10
2019-02-07T15:47:45.327Z,31.60
2019-02-07T15:50:20.341Z,31.33
2019-02-07T15:52:53.452Z,35.37
2019-02-07T15:55:23.820Z,32.03
2019-02-07T15:57:54.227Z,28.50
2019-02-07T16:00:42.581Z,30.30
2019-02-07T16:03:31.734Z,31.93
2019-02-07T16:06:01.948Z,31.20
2019-02-07T16:08:32.175Z,29.37
2019-02-07T16:11:02.516Z,29.90
2019-02-07T16:13:32.758Z,30.20
2019-02-07T16:16:03.161Z,33.10
2019-02-07T16:18:33.337Z,35.37
2019-02-07T16:21:03.624Z,50.73
2019-02-07T16:23:34.006Z,53.67
2019-02-07T16:26:04.274Z,53.73
2019-02-07T16:28:34.529Z,46.80
2019-02-07T16:31:05.954Z,33.77
2019-02-07T16:33:36.205Z,30.07
2019-02-07T16:36:06.784Z,28.60
2019-02-07T16:38:36.920Z,30.70
2019-02-07T16:41:07.531Z,31.17
2019-02-07T16:43:37.797Z,31.10
2019-02-07T16:46:08.016Z,32.87
2019-02-07T16:48:38.221Z,40.37
2019-02-07T16:51:08.594Z,36.90
2019-02-07T16:53:39.003Z,36.20
2019-02-07T16:56:09.345Z,38.17
2019-02-07T16:58:39.661Z,37.10
2019-02-07T17:01:14.410Z,35.20
2019-02-07T17:03:44.591Z,33.10
2019-02-07T17:06:14.796Z,32.87
2019-02-07T17:08:46.618Z,60.03
2019-02-07T17:11:19.013Z,42.83
2019-02-07T17:13:49.295Z,39.40
2019-02-07T17:16:22.794Z,37.60
2019-02-07T17:18:57.133Z,33.47
2019-02-07T17:21:28.624Z,34.73
2019-02-07T17:24:04.475Z,32.30
2019-02-07T17:26:36.451Z,35.10
2019-02-07T17:29:08.649Z,34.80
2019-02-07T17:31:39.415Z,35.37
2019-02-07T17:34:10.187Z,36.07
2019-02-07T17:36:45.673Z,36.67
2019-02-07T17:39:17.818Z,44.27
2019-02-07T17:41:48.605Z,40.60
2019-02-07T17:44:19.453Z,54.73
2019-02-07T17:46:51.131Z,42.70
2019-02-07T17:49:21.708Z,42.40
2019-02-07T17:51:54.879Z,44.53
2019-02-07T17:54:31.661Z,37.93
2019-02-07T17:57:04.139Z,39.50
2019-02-07T17:59:38.857Z,35.63
2019-02-07T18:02:19.323Z,36.60
2019-02-07T18:04:51.255Z,38.90
2019-02-07T18:07:24.277Z,41.87
2019-02-07T18:09:55.660Z,42.93
2019-02-07T18:12:26.447Z,45.23
2019-02-07T18:14:57.978Z,46.73
2019-02-07T18:17:29.370Z,43.77
2019-02-07T18:20:04.119Z,45.43
2019-02-07T18:22:34.809Z,45.50
2019-02-07T18:25:08.945Z,40.30
2019-02-07T18:28:01.689Z,38.73
2019-02-07T18:30:37.273Z,39.23
2019-02-07T18:33:09.948Z,40.40
2019-02-07T18:35:42.418Z,38.70
2019-02-07T18:38:15.458Z,36.33
2019-02-07T18:40:47.506Z,38.30
2019-02-07T18:43:19.853Z,42.33
2019-02-07T18:45:56.599Z,46.43
2019-02-07T18:48:29.022Z,46.23
2019-02-07T18:50:56.460Z,38.00
2019-02-07T18:53:28.071Z,41.77
2019-02-07T18:56:02.862Z,39.93
2019-02-07T18:58:34.907Z,39.90
2019-02-07T19:01:06.469Z,42.60
2019-02-07T19:03:37.274Z,43.50
2019-02-07T19:06:08.537Z,47.93
2019-02-07T19:08:39.322Z,46.27
2019-02-07T19:11:12.477Z,46.10
2019-02-07T19:13:43.469Z,43.20
2019-02-07T19:16:19.997Z,44.27
2019-02-07T19:18:51.177Z,42.20
2019-02-07T19:21:23.501Z,47.33
2019-02-07T19:23:55.538Z,49.97
2019-02-07T19:26:29.082Z,46.57
2019-02-07T19:28:59.703Z,48.93
2019-02-07T19:31:31.902Z,46.37
2019-02-07T19:34:02.657Z,46.13
2019-02-07T19:36:36.361Z,43.13
2019-02-07T19:39:10.849Z,43.30
2019-02-07T19:41:41.419Z,41.70
2019-02-07T19:44:13.634Z,39.53
2019-02-07T19:46:44.385Z,36.23
2019-02-07T19:49:16.373Z,36.67
2019-02-07T19:51:46.860Z,36.60
2019-02-07T19:54:17.459Z,39.80
2019-02-07T19:56:48.244Z,39.07
2019-02-07T19:59:19.718Z,39.30
2019-02-07T20:01:51.022Z,44.97
2019-02-07T20:04:22.271Z,46.37
2019-02-07T20:06:53.878Z,36.77
2019-02-07T20:09:24.277Z,37.47
2019-02-07T20:11:54.852Z,38.30
2019-02-07T20:14:27.872Z,36.93
2019-02-07T20:16:58.938Z,33.00
2019-02-07T20:19:31.966Z,38.97
2019-02-07T20:22:07.552Z,37.40
2019-02-07T20:24:45.642Z,42.67
2019-02-07T20:27:10.582Z,37.07
2019-02-07T20:29:41.250Z,36.50
2019-02-07T20:32:12.083Z,40.03
2019-02-07T20:34:43.550Z,37.20
2019-02-07T20:37:14.434Z,40.10
2019-02-07T20:39:44.941Z,35.23
2019-02-07T20:42:19.240Z,38.10
2019-02-07T20:44:49.982Z,41.80
2019-02-07T20:47:20.392Z,40.80
2019-02-07T20:49:51.195Z,50.07
2019-02-07T20:52:27.185Z,47.70
2019-02-07T20:54:54.567Z,40.60
2019-02-07T20:57:25.291Z,39.00
2019-02-07T20:59:55.517Z,45.17
2019-02-07T21:02:25.159Z,47.20
2019-02-07T21:04:55.332Z,47.33
2019-02-07T21:07:25.445Z,47.80
2019-02-07T21:09:56.001Z,42.37
2019-02-07T21:12:25.563Z,39.43
2019-02-07T21:14:55.058Z,34.13
2019-02-07T21:17:24.627Z,25.20
2019-02-07T21:19:54.170Z,18.77
2019-02-07T21:22:24.030Z,17.80
2019-02-07T21:24:55.303Z,16.40
2019-02-07T21:27:24.812Z,17.23
2019-02-07T21:29:54.338Z,16.43
2019-02-07T21:32:23.886Z,15.73
2019-02-07T21:34:53.395Z,19.37
2019-02-07T21:37:25.066Z,15.47
2019-02-07T21:39:54.517Z,11.00
2019-02-07T21:42:24.037Z,10.10
2019-02-07T21:44:53.547Z,11.13
2019-02-07T21:47:23.054Z,12.20
2019-02-07T21:49:52.565Z,12.17
2019-02-07T21:52:22.067Z,9.40
2019-02-07T21:54:51.744Z,7.70
2019-02-07T21:57:21.251Z,8.13
2019-02-07T21:59:50.750Z,10.10
2019-02-07T22:02:20.290Z,16.67
2019-02-07T22:04:51.729Z,11.27
2019-02-07T22:07:22.592Z,12.43
2019-02-07T22:09:52.009Z,15.80
2019-02-07T22:12:21.535Z,15.77
2019-02-07T22:14:50.997Z,16.17
2019-02-07T22:17:20.437Z,13.90
2019-02-07T22:19:49.923Z,14.57
2019-02-07T22:22:21.313Z,11.73
2019-02-07T22:24:50.745Z,12.57
2019-02-07T22:27:20.191Z,14.60
2019-02-07T22:29:53.803Z,13.40
2019-02-07T22:32:23.221Z,15.00
2019-02-07T22:34:52.707Z,15.23
2019-02-07T22:37:25.422Z,19.90
2019-02-07T22:39:54.911Z,9.77
2019-02-07T22:42:24.265Z,7.80
2019-02-07T22:44:53.724Z,8.60
2019-02-07T22:47:23.116Z,8.43
2019-02-07T22:49:55.266Z,8.47
2019-02-07T22:52:27.642Z,6.23
2019-02-07T22:54:57.155Z,5.13
2019-02-07T22:57:27.628Z,4.80
2019-02-07T22:59:57.992Z,4.57
2019-02-07T23:02:27.404Z,7.20
2019-02-07T23:04:57.130Z,6.47
2019-02-07T23:07:26.516Z,5.87
2019-02-07T23:09:55.896Z,3.70
2019-02-07T23:12:25.296Z,5.97
2019-02-07T23:14:56.232Z,5.20
2019-02-07T23:17:25.622Z,4.60
2019-02-07T23:19:56.966Z,4.50
2019-02-07T23:22:26.447Z,4.70
2019-02-07T23:24:55.824Z,4.27
2019-02-07T23:27:25.222Z,4.40
2019-02-07T23:29:57.388Z,4.13
2019-02-07T23:32:26.788Z,4.20
2019-02-07T23:34:56.400Z,3.87
2019-02-07T23:37:25.834Z,3.77
2019-02-07T23:39:55.224Z,3.23
2019-02-07T23:42:29.703Z,3.30
2019-02-07T23:45:05.113Z,3.20
2019-02-07T23:47:34.978Z,3.43
2019-02-07T23:50:05.430Z,2.87
2019-02-07T23:52:34.864Z,3.87
2019-02-07T23:55:07.979Z,3.67
2019-02-07T23:57:38.556Z,4.50
